createdAt,value
2019-02-06T00:01:21.214Z,102060.78
2019-02-06T00:03:55.041Z,102061.22
2019-02-06T00:06:31.412Z,102063.39
2019-02-06T00:09:12.572Z,102069.06
2019-02-06T00:11:48.403Z,102069.17
2019-02-06T00:14:27.311Z,102065.02
2019-02-06T00:17:06.735Z,102063.78
2019-02-06T00:19:45.919Z,102067.77
2019-02-06T00:22:36.044Z,102055.95
2019-02-06T00:25:14.588Z,102054.75
2019-02-06T00:27:51.540Z,102060.06
2019-02-06T00:30:31.494Z,102060.45
2019-02-06T00:33:19.360Z,102062.80
2019-02-06T00:35:53.768Z,102068.38
2019-02-06T00:38:25.685Z,102071.95
2019-02-06T00:41:00.462Z,102068.55
2019-02-06T00:43:41.048Z,102069.59
2019-02-06T00:46:14.925Z,102066.69
2019-02-06T00:48:53.712Z,102066.22
2019-02-06T00:51:30.975Z,102064.00
2019-02-06T00:54:09.015Z,102064.91
2019-02-06T00:56:42.508Z,102059.71
2019-02-06T00:59:15.166Z,102066.61
2019-02-06T01:01:47.010Z,102072.84
2019-02-06T01:04:19.054Z,102072.95
2019-02-06T01:06:50.868Z,102076.05
2019-02-06T01:09:22.697Z,102078.19
2019-02-06T01:11:54.606Z,102084.08
2019-02-06T01:14:26.493Z,102087.86
2019-02-06T01:16:58.314Z,102081.62
2019-02-06T01:19:30.244Z,102081.14
2019-02-06T01:22:02.076Z,102084.03
2019-02-06T01:24:33.926Z,102076.60
2019-02-06T01:27:05.975Z,102084.45
2019-02-06T01:29:37.751Z,102084.24
2019-02-06T01:32:09.653Z,102080.14
2019-02-06T01:34:41.534Z,102080.14
2019-02-06T01:37:14.326Z,102084.88
2019-02-06T01:39:46.252Z,102081.03
2019-02-06T01:42:18.095Z,102076.14
2019-02-06T01:44:49.855Z,102076.64
2019-02-06T01:47:21.743Z,102078.48
2019-02-06T01:49:53.627Z,102080.68
2019-02-06T01:52:25.477Z,102075.86
2019-02-06T01:54:57.579Z,102077.45
2019-02-06T01:57:29.511Z,102079.88
2019-02-06T02:00:01.370Z,102073.70
2019-02-06T02:02:33.495Z,102070.11
2019-02-06T02:05:05.940Z,102067.08
2019-02-06T02:07:38.067Z,102068.03
2019-02-06T02:10:10.419Z,102068.95
2019-02-06T02:12:42.325Z,102071.95
2019-02-06T02:15:15.449Z,102070.61
2019-02-06T02:17:47.838Z,102069.30
2019-02-06T02:20:22.443Z,102066.61
2019-02-06T02:22:54.463Z,102064.23
2019-02-06T02:25:26.274Z,102064.41
2019-02-06T02:27:58.168Z,102069.63
2019-02-06T02:30:46.533Z,102070.55
2019-02-06T02:33:18.454Z,102066.07
2019-02-06T02:35:50.287Z,102057.91
2019-02-06T02:38:22.220Z,102060.02
2019-02-06T02:40:54.583Z,102066.22
2019-02-06T02:43:26.439Z,102064.37
2019-02-06T02:45:58.516Z,102058.73
2019-02-06T02:48:30.395Z,102058.94
2019-02-06T02:51:02.259Z,102051.84
2019-02-06T02:53:34.469Z,102047.95
2019-02-06T02:56:06.341Z,102047.45
2019-02-06T02:58:38.117Z,102043.53
2019-02-06T03:01:37.776Z,102048.28
2019-02-06T03:04:14.013Z,102038.91
2019-02-06T03:06:45.899Z,102037.24
2019-02-06T03:09:17.720Z,102037.00
2019-02-06T03:11:49.596Z,102040.56
2019-02-06T03:14:22.483Z,102034.51
2019-02-06T03:16:54.318Z,102030.53
2019-02-06T03:19:26.125Z,102031.89
2019-02-06T03:21:57.956Z,102023.70
2019-02-06T03:24:29.735Z,102024.00
2019-02-06T03:27:01.545Z,102022.58
2019-02-06T03:29:33.331Z,102029.25
2019-02-06T03:32:05.189Z,102029.73
2019-02-06T03:34:36.974Z,102032.34
2019-02-06T03:37:08.842Z,102035.13
2019-02-06T03:39:40.649Z,102040.36
2019-02-06T03:42:12.532Z,102041.28
2019-02-06T03:44:44.346Z,102041.34
2019-02-06T03:47:16.182Z,102038.78
2019-02-06T03:49:48.882Z,102039.05
2019-02-06T03:52:20.726Z,102034.00
2019-02-06T03:54:52.526Z,102031.33
2019-02-06T03:57:25.547Z,102032.48
2019-02-06T03:59:57.752Z,102034.08
2019-02-06T04:02:29.517Z,102031.05
2019-02-06T04:05:01.339Z,102033.58
2019-02-06T04:07:33.234Z,102031.95
2019-02-06T04:10:06.182Z,102033.86
2019-02-06T04:12:38.151Z,102034.33
2019-02-06T04:15:12.020Z,102032.81
2019-02-06T04:17:43.986Z,102029.66
2019-02-06T04:20:16.123Z,102034.00
2019-02-06T04:22:47.964Z,102028.17
2019-02-06T04:25:19.888Z,102025.97
2019-02-06T04:27:51.722Z,102033.23
2019-02-06T04:30:23.656Z,102034.19
2019-02-06T04:32:55.596Z,102030.88
2019-02-06T04:35:27.443Z,102036.45
2019-02-06T04:37:59.272Z,102035.61
2019-02-06T04:40:31.462Z,102039.42
2019-02-06T04:43:03.250Z,102052.33
2019-02-06T04:45:35.070Z,102043.86
2019-02-06T04:48:06.932Z,102045.03
2019-02-06T04:50:38.825Z,102037.97
2019-02-06T04:53:10.914Z,102038.39
2019-02-06T04:55:43.166Z,102042.41
2019-02-06T04:58:15.094Z,102044.05
2019-02-06T05:00:46.900Z,102044.67
2019-02-06T05:03:18.846Z,102043.61
2019-02-06T05:05:50.770Z,102039.97
2019-02-06T05:08:22.748Z,102048.34
2019-02-06T05:10:54.622Z,102043.53
2019-02-06T05:13:26.538Z,102045.14
2019-02-06T05:15:58.440Z,102044.45
2019-02-06T05:18:30.376Z,102038.79
2019-02-06T05:21:02.184Z,102049.30
2019-02-06T05:23:34.211Z,102050.63
2019-02-06T05:26:09.562Z,102043.45
2019-02-06T05:28:41.612Z,102046.70
2019-02-06T05:31:13.937Z,102042.95
2019-02-06T05:33:45.969Z,102048.83
2019-02-06T05:36:17.980Z,102045.69
2019-02-06T05:38:49.925Z,102047.05
2019-02-06T05:41:21.937Z,102049.76
2019-02-06T05:43:54.265Z,102047.11
2019-02-06T05:46:26.297Z,102043.80
2019-02-06T05:48:58.543Z,102042.36
2019-02-06T05:51:30.565Z,102046.44
2019-02-06T05:54:02.584Z,102041.93
2019-02-06T05:56:34.792Z,102048.78
2019-02-06T05:59:06.813Z,102045.75
2019-02-06T06:01:38.838Z,102045.88
2019-02-06T06:04:11.097Z,102045.56
2019-02-06T06:06:43.011Z,102041.55
2019-02-06T06:09:15.137Z,102040.41
2019-02-06T06:11:47.317Z,102042.23
2019-02-06T06:14:19.164Z,102044.35
2019-02-06T06:16:51.156Z,102046.83
2019-02-06T06:19:23.129Z,102053.00
2019-02-06T06:21:55.066Z,102056.28
2019-02-06T06:24:26.984Z,102063.02
2019-02-06T06:26:58.987Z,102062.62
2019-02-06T06:29:30.970Z,102058.59
2019-02-06T06:32:02.890Z,102057.51
2019-02-06T06:34:34.869Z,102063.35
2019-02-06T06:37:07.049Z,102056.85
2019-02-06T06:39:38.964Z,102058.28
2019-02-06T06:42:16.162Z,102057.67
2019-02-06T06:44:47.985Z,102054.91
2019-02-06T06:47:24.385Z,102051.50
2019-02-06T06:49:56.319Z,102045.28
2019-02-06T06:52:28.372Z,102048.53
2019-02-06T06:55:00.379Z,102048.66
2019-02-06T06:57:53.671Z,102050.93
2019-02-06T07:00:33.427Z,102054.42
2019-02-06T07:03:05.733Z,102056.53
2019-02-06T07:05:38.793Z,102052.23
2019-02-06T07:08:13.715Z,102052.64
2019-02-06T07:10:49.353Z,102052.47
2019-02-06T07:13:21.568Z,102058.08
2019-02-06T07:15:53.574Z,102057.06
2019-02-06T07:18:25.799Z,102055.44
2019-02-06T07:20:57.657Z,102057.09
2019-02-06T07:23:29.609Z,102053.80
2019-02-06T07:26:03.440Z,102061.84
2019-02-06T07:28:35.412Z,102052.81
2019-02-06T07:31:08.191Z,102054.88
2019-02-06T07:33:40.501Z,102055.80
2019-02-06T07:36:12.639Z,102060.18
2019-02-06T07:38:46.682Z,102055.73
2019-02-06T07:41:18.554Z,102058.69
2019-02-06T07:43:50.578Z,102061.70
2019-02-06T07:46:22.692Z,102063.35
2019-02-06T07:48:54.725Z,102065.62
2019-02-06T07:51:26.750Z,102065.15
2019-02-06T07:53:58.665Z,102062.32
2019-02-06T07:56:30.604Z,102064.44
2019-02-06T07:59:02.442Z,102058.66
2019-02-06T08:01:34.422Z,102059.61
2019-02-06T08:04:06.272Z,102062.61
2019-02-06T08:06:38.321Z,102061.29
2019-02-06T08:09:11.584Z,102058.11
2019-02-06T08:11:43.484Z,102054.58
2019-02-06T08:14:15.680Z,102056.30
2019-02-06T08:16:47.736Z,102060.17
2019-02-06T08:19:19.759Z,102053.61
2019-02-06T08:21:52.006Z,102044.05
2019-02-06T08:24:23.911Z,102034.80
2019-02-06T08:26:57.483Z,102033.43
2019-02-06T08:29:29.395Z,102030.98
2019-02-06T08:32:01.236Z,102022.86
2019-02-06T08:34:33.206Z,102020.95
2019-02-06T08:37:05.193Z,102024.86
2019-02-06T08:39:37.084Z,102010.84
2019-02-06T08:42:10.213Z,102006.63
2019-02-06T08:44:42.137Z,102009.78
2019-02-06T08:47:14.076Z,102007.08
2019-02-06T08:49:46.004Z,102008.55
2019-02-06T08:52:17.952Z,102005.47
2019-02-06T08:54:49.912Z,101997.95
2019-02-06T08:57:21.864Z,101998.59
2019-02-06T08:59:53.843Z,101996.70
2019-02-06T09:02:25.694Z,101991.59
2019-02-06T09:04:57.568Z,101990.70
2019-02-06T09:07:29.496Z,101994.02
2019-02-06T09:10:01.653Z,101993.91
2019-02-06T09:12:34.985Z,101993.84
2019-02-06T09:15:08.731Z,102003.70
2019-02-06T09:17:40.628Z,101999.72
2019-02-06T09:20:18.085Z,102003.88
2019-02-06T09:22:50.423Z,102009.64
2019-02-06T09:25:23.245Z,102006.13
2019-02-06T09:27:55.510Z,102008.68
2019-02-06T09:30:29.619Z,102009.15
2019-02-06T09:33:01.980Z,102010.81
2019-02-06T09:35:33.782Z,102012.61
2019-02-06T09:38:05.911Z,102007.62
2019-02-06T09:40:37.747Z,102001.62
2019-02-06T09:43:09.614Z,102005.97
2019-02-06T09:45:41.472Z,102010.78
2019-02-06T09:48:13.431Z,102005.75
2019-02-06T09:50:45.279Z,102005.43
2019-02-06T09:53:17.189Z,102013.63
2019-02-06T09:55:49.267Z,102014.05
2019-02-06T09:58:21.043Z,102014.13
2019-02-06T10:00:52.955Z,102008.74
2019-02-06T10:03:24.758Z,102007.23
2019-02-06T10:05:56.580Z,102001.38
2019-02-06T10:08:28.449Z,102000.53
2019-02-06T10:11:00.239Z,101998.81
2019-02-06T10:13:32.147Z,101998.66
2019-02-06T10:16:04.027Z,101982.05
2019-02-06T10:18:35.826Z,101980.00
2019-02-06T10:21:07.796Z,101969.54
2019-02-06T10:23:39.729Z,101973.36
2019-02-06T10:26:11.767Z,101976.34
2019-02-06T10:28:43.567Z,101973.09
2019-02-06T10:31:15.423Z,101973.86
2019-02-06T10:33:47.307Z,101971.86
2019-02-06T10:36:19.200Z,101978.23
2019-02-06T10:38:51.006Z,101977.08
2019-02-06T10:41:22.746Z,101980.34
2019-02-06T10:43:54.600Z,101973.20
2019-02-06T10:46:26.390Z,101963.31
2019-02-06T10:48:58.424Z,101954.03
2019-02-06T10:51:30.237Z,101946.01
2019-02-06T10:54:02.135Z,101947.87
2019-02-06T10:56:33.981Z,101941.02
2019-02-06T10:59:06.144Z,101938.52
2019-02-06T11:01:38.035Z,101939.63
2019-02-06T11:04:10.178Z,101937.20
2019-02-06T11:06:44.007Z,101933.97
2019-02-06T11:09:15.767Z,101924.45
2019-02-06T11:11:47.771Z,101919.98
2019-02-06T11:14:19.531Z,101915.20
2019-02-06T11:16:51.363Z,101909.41
2019-02-06T11:19:25.143Z,101914.49
2019-02-06T11:22:06.240Z,101910.28
2019-02-06T11:24:40.655Z,101904.27
2019-02-06T11:27:16.244Z,101907.11
2019-02-06T11:29:51.767Z,101898.34
2019-02-06T11:32:37.698Z,101902.17
2019-02-06T11:35:20.425Z,101897.02
2019-02-06T11:37:59.548Z,101892.39
2019-02-06T11:40:56.185Z,101879.64
2019-02-06T11:43:32.018Z,101875.13
2019-02-06T11:46:05.761Z,101872.77
2019-02-06T11:48:43.334Z,101864.11
2019-02-06T11:51:20.433Z,101867.94
2019-02-06T11:53:54.557Z,101863.63
2019-02-06T11:59:13.914Z,101841.20
2019-02-06T12:01:53.179Z,101843.82
2019-02-06T12:04:31.354Z,101843.89
2019-02-06T12:07:16.280Z,101840.03
2019-02-06T12:09:56.319Z,101824.90
2019-02-06T12:12:36.078Z,101818.45
2019-02-06T12:15:25.450Z,101803.40
2019-02-06T12:17:57.635Z,101811.12
2019-02-06T12:20:33.829Z,101796.77
2019-02-06T12:23:31.416Z,101567.02
2019-02-06T12:26:00.073Z,101797.70
2019-02-06T12:28:46.153Z,101791.29
2019-02-06T12:31:33.310Z,101784.81
2019-02-06T12:34:02.655Z,101783.38
2019-02-06T12:36:38.934Z,101780.22
2019-02-06T12:39:26.851Z,101782.34
2019-02-06T12:42:05.068Z,101778.72
2019-02-06T12:44:45.310Z,101783.23
2019-02-06T12:47:17.115Z,101766.56
2019-02-06T12:49:57.625Z,101769.69
2019-02-06T12:52:34.202Z,101765.68
2019-02-06T12:55:09.944Z,101759.51
2019-02-06T12:57:44.509Z,101746.70
2019-02-06T13:00:29.759Z,101735.17
2019-02-06T13:03:07.534Z,101740.98
2019-02-06T13:05:39.547Z,101689.05
2019-02-06T13:08:17.360Z,101729.33
2019-02-06T13:11:09.619Z,101721.17
2019-02-06T13:13:45.324Z,101717.56
2019-02-06T13:16:17.336Z,101708.23
2019-02-06T13:18:53.456Z,101705.64
2019-02-06T13:21:25.499Z,101704.33
2019-02-06T13:24:01.139Z,101700.47
2019-02-06T13:26:33.322Z,101692.17
2019-02-06T13:29:05.172Z,101695.43
2019-02-06T13:31:36.966Z,101703.70
2019-02-06T13:34:08.878Z,101693.56
2019-02-06T13:36:40.701Z,101693.31
2019-02-06T13:39:13.073Z,101690.92
2019-02-06T13:41:44.879Z,101693.12
2019-02-06T13:44:16.694Z,101685.92
2019-02-06T13:46:53.392Z,101684.84
2019-02-06T13:49:22.132Z,101687.93
2019-02-06T13:51:54.117Z,101676.61
2019-02-06T13:54:25.880Z,101675.30
2019-02-06T13:56:57.939Z,101674.31
2019-02-06T13:59:31.585Z,101668.27
2019-02-06T14:02:05.210Z,101660.40
2019-02-06T14:04:37.289Z,101660.99
2019-02-06T14:07:09.209Z,101651.22
2019-02-06T14:09:41.479Z,101648.53
2019-02-06T14:12:16.006Z,101647.14
2019-02-06T14:14:49.001Z,101644.70
2019-02-06T14:17:21.084Z,101640.45
2019-02-06T14:19:52.939Z,101636.95
2019-02-06T14:22:25.400Z,101631.69
2019-02-06T14:25:35.306Z,101632.88
2019-02-06T14:28:49.877Z,101625.28
2019-02-06T14:32:22.249Z,101622.31
2019-02-06T14:35:57.244Z,101623.33
2019-02-06T14:39:54.935Z,101610.41
2019-02-06T14:43:44.927Z,101613.07
2019-02-06T14:47:33.241Z,101607.37
2019-02-06T14:50:23.410Z,101603.98
2019-02-06T14:53:51.449Z,101602.47
2019-02-06T14:57:19.625Z,101597.47
2019-02-06T15:00:31.954Z,101591.80
2019-02-06T15:04:17.915Z,101583.63
2019-02-06T15:07:48.672Z,101585.22
2019-02-06T15:11:19.441Z,101582.82
2019-02-06T15:14:53.243Z,101573.49
2019-02-06T15:18:39.950Z,101575.39
2019-02-06T15:22:11.373Z,101568.47
2019-02-06T15:25:35.729Z,101554.95
2019-02-06T15:28:59.576Z,101552.17
2019-02-06T15:32:19.245Z,101541.73
2019-02-06T15:35:25.416Z,101543.90
2019-02-06T15:39:01.284Z,101544.42
2019-02-06T15:42:04.162Z,101547.31
2019-02-06T15:45:29.100Z,101545.87
2019-02-06T15:48:55.897Z,101544.15
2019-02-06T15:52:06.241Z,101552.77
2019-02-06T15:55:11.574Z,101553.78
2019-02-06T15:58:27.637Z,101545.59
2019-02-06T16:02:17.161Z,101546.00
2019-02-06T16:05:34.327Z,101551.25
2019-02-06T16:09:15.380Z,101543.82
2019-02-06T16:12:38.100Z,101546.80
2019-02-06T16:15:40.030Z,101548.67
2019-02-06T16:19:32.336Z,101549.23
2019-02-06T16:22:59.662Z,101552.16
2019-02-06T16:26:36.704Z,101543.22
2019-02-06T16:30:28.737Z,101543.83
2019-02-06T16:33:55.302Z,101537.55
2019-02-06T16:37:36.787Z,101536.75
2019-02-06T16:41:13.359Z,101528.09
2019-02-06T16:44:21.900Z,101524.47
2019-02-06T16:47:50.554Z,101528.64
2019-02-06T16:51:14.605Z,101528.41
2019-02-06T16:54:16.888Z,101523.78
2019-02-06T16:58:19.664Z,101522.88
2019-02-06T17:01:59.695Z,101522.88
2019-02-06T17:05:12.853Z,101520.94
2019-02-06T17:08:50.040Z,101516.79
2019-02-06T17:12:46.884Z,101519.75
2019-02-06T17:16:20.262Z,101519.09
2019-02-06T17:19:36.005Z,101512.94
2019-02-06T17:22:49.882Z,101511.39
2019-02-06T17:26:12.667Z,101511.17
2019-02-06T17:29:11.697Z,101509.20
2019-02-06T17:32:51.549Z,101507.52
2019-02-06T17:36:06.104Z,101496.29
2019-02-06T17:39:33.122Z,101499.12
2019-02-06T17:42:47.279Z,101493.77
2019-02-06T17:45:44.243Z,101499.89
2019-02-06T17:49:11.799Z,101494.84
2019-02-06T17:52:50.705Z,101497.05
2019-02-06T17:55:27.547Z,101488.72
2019-02-06T17:58:03.155Z,101490.50
2019-02-06T18:01:04.518Z,101489.44
2019-02-06T18:03:48.511Z,101487.78
2019-02-06T18:06:23.811Z,101489.19
2019-02-06T18:08:57.221Z,101490.78
2019-02-06T18:11:29.881Z,101488.52
2019-02-06T18:14:05.883Z,101483.25
2019-02-06T18:16:39.391Z,101479.76
2019-02-06T18:19:11.508Z,101472.55
2019-02-06T18:21:43.579Z,101472.98
2019-02-06T18:24:15.721Z,101477.34
2019-02-06T18:26:49.236Z,101473.72
2019-02-06T18:29:21.239Z,101470.50
2019-02-06T18:31:56.400Z,101470.68
2019-02-06T18:34:28.475Z,101463.68
2019-02-06T18:37:01.059Z,101461.84
2019-02-06T18:39:33.426Z,101467.48
2019-02-06T18:42:06.356Z,101468.14
2019-02-06T18:44:38.527Z,101461.96
2019-02-06T18:47:10.663Z,101458.83
2019-02-06T18:49:42.739Z,101466.52
2019-02-06T18:52:20.322Z,101462.55
2019-02-06T18:54:48.639Z,101456.44
2019-02-06T18:57:20.473Z,101451.70
2019-02-06T18:59:53.713Z,101450.13
2019-02-06T19:02:26.090Z,101447.59
2019-02-06T19:04:57.999Z,101442.52
2019-02-06T19:07:30.181Z,101436.82
2019-02-06T19:10:02.241Z,101441.86
2019-02-06T19:12:34.294Z,101438.97
2019-02-06T19:15:08.201Z,101434.16
2019-02-06T19:17:40.264Z,101435.95
2019-02-06T19:20:14.260Z,101433.74
2019-02-06T19:22:46.150Z,101428.61
2019-02-06T19:25:18.225Z,101429.19
2019-02-06T19:27:50.342Z,101429.84
2019-02-06T19:30:31.925Z,101425.67
2019-02-06T19:33:03.941Z,101419.88
2019-02-06T19:35:36.108Z,101424.25
2019-02-06T19:38:09.478Z,101424.09
2019-02-06T19:40:41.510Z,101417.79
2019-02-06T19:43:13.603Z,101417.73
2019-02-06T19:45:45.651Z,101413.56
2019-02-06T19:48:19.203Z,101408.69
2019-02-06T19:50:52.238Z,101409.94
2019-02-06T19:53:24.478Z,101408.52
2019-02-06T19:55:57.694Z,101407.98
2019-02-06T19:58:31.232Z,101405.70
2019-02-06T20:01:04.624Z,101396.89
2019-02-06T20:03:36.778Z,101394.36
2019-02-06T20:06:08.940Z,101389.89
2019-02-06T20:08:41.066Z,101388.14
2019-02-06T20:11:13.163Z,101386.78
2019-02-06T20:13:45.539Z,101379.58
2019-02-06T20:16:17.984Z,101375.27
2019-02-06T20:18:50.240Z,101378.75
2019-02-06T20:21:24.565Z,101376.91
2019-02-06T20:23:56.858Z,101371.09
2019-02-06T20:26:31.443Z,101369.91
2019-02-06T20:29:04.340Z,101370.47
2019-02-06T20:31:36.752Z,101368.61
2019-02-06T20:34:09.139Z,101370.16
2019-02-06T20:36:41.419Z,101368.39
2019-02-06T20:39:16.718Z,101362.16
2019-02-06T20:41:50.186Z,101370.38
2019-02-06T20:44:24.005Z,101363.45
2019-02-06T20:46:56.323Z,101360.33
2019-02-06T20:49:28.774Z,101349.50
2019-02-06T20:52:01.034Z,101357.37
2019-02-06T20:54:33.431Z,101361.03
2019-02-06T20:57:13.673Z,101354.00
2019-02-06T20:59:39.385Z,101356.07
2019-02-06T21:02:11.456Z,101355.30
2019-02-06T21:04:43.970Z,101355.59
2019-02-06T21:07:17.799Z,101346.09
2019-02-06T21:09:50.902Z,101340.36
2019-02-06T21:12:23.039Z,101340.66
2019-02-06T21:14:55.012Z,101341.50
2019-02-06T21:17:26.946Z,101341.50
2019-02-06T21:19:58.867Z,101335.73
2019-02-06T21:22:30.825Z,101338.34
2019-02-06T21:25:02.758Z,101339.64
2019-02-06T21:27:35.998Z,101335.58
2019-02-06T21:30:13.902Z,101344.79
2019-02-06T21:32:45.897Z,101337.48
2019-02-06T21:35:18.068Z,101340.47
2019-02-06T21:37:49.959Z,101332.44
2019-02-06T21:40:25.150Z,101330.36
2019-02-06T21:42:57.155Z,101328.34
2019-02-06T21:45:29.347Z,101332.71
2019-02-06T21:48:01.325Z,101325.27
2019-02-06T21:50:33.299Z,101330.41
2019-02-06T21:53:05.260Z,101335.59
2019-02-06T21:55:37.121Z,101323.00
2019-02-06T21:58:09.114Z,101317.93
2019-02-06T22:00:42.901Z,101313.83
2019-02-06T22:03:14.778Z,101310.84
2019-02-06T22:05:47.715Z,101304.92
2019-02-06T22:08:19.585Z,101301.05
2019-02-06T22:10:51.445Z,101294.19
2019-02-06T22:13:23.377Z,101294.19
2019-02-06T22:15:55.622Z,101294.77
2019-02-06T22:18:28.705Z,101296.12
2019-02-06T22:21:00.847Z,101288.51
2019-02-06T22:23:32.979Z,101287.31
2019-02-06T22:26:05.077Z,101290.86
2019-02-06T22:28:36.995Z,101285.27
2019-02-06T22:31:08.959Z,101290.22
2019-02-06T22:33:40.896Z,101291.23
2019-02-06T22:36:12.695Z,101286.03
2019-02-06T22:38:44.531Z,101279.58
2019-02-06T22:41:16.357Z,101288.80
2019-02-06T22:43:48.237Z,101286.42
2019-02-06T22:46:20.095Z,101283.24
2019-02-06T22:48:51.988Z,101280.45
2019-02-06T22:51:23.769Z,101282.84
2019-02-06T22:53:55.755Z,101278.74
2019-02-06T22:56:28.546Z,101282.12
2019-02-06T22:59:00.357Z,101272.62
2019-02-06T23:02:01.421Z,101274.50
2019-02-06T23:04:33.485Z,101271.67
2019-02-06T23:07:07.181Z,101274.61
2019-02-06T23:09:39.032Z,101270.30
2019-02-06T23:12:11.694Z,101267.70
2019-02-06T23:14:43.637Z,101261.20
2019-02-06T23:17:15.504Z,101255.34
2019-02-06T23:19:47.358Z,101253.08
2019-02-06T23:22:19.259Z,101258.16
2019-02-06T23:24:51.277Z,101257.02
2019-02-06T23:27:23.168Z,101257.37
2019-02-06T23:29:55.083Z,101249.50
2019-02-06T23:32:27.004Z,101254.63
2019-02-06T23:34:58.815Z,101249.73
2019-02-06T23:37:30.580Z,101246.05
2019-02-06T23:40:02.389Z,101237.72
2019-02-06T23:42:34.308Z,101228.80
2019-02-06T23:45:07.705Z,101240.49
2019-02-06T23:47:39.456Z,101238.05
2019-02-06T23:50:11.320Z,101236.16
2019-02-06T23:52:43.167Z,101237.05
2019-02-06T23:55:15.295Z,101237.22
2019-02-06T23:57:47.116Z,101227.68
